sensor_id;sensor_type;location;lat;lon;timestamp;pressure;altitude;pressure_sealevel;temperature;humidity
21433;BME280;18592;49.708;10.900;2022-12-18T00:01:05;100042.00;;;-6.45;47.64
21433;BME280;18592;49.708;10.900;2022-12-18T00:03:15;100035.94;;;-6.47;47.51
21433;BME280;18592;49.708;10.900;2022-12-18T00:05:17;100042.22;;;-6.48;47.78
21433;BME280;18592;49.708;10.900;2022-12-18T00:07:21;100041.34;;;-6.49;47.72
21433;BME280;18592;49.708;10.900;2022-12-18T00:09:32;100038.78;;;-6.50;47.52
21433;BME280;18592;49.708;10.900;2022-12-18T00:11:43;100035.41;;;-6.52;47.44
21433;BME280;18592;49.708;10.900;2022-12-18T00:13:45;100035.84;;;-6.58;47.53
21433;BME280;18592;49.708;10.900;2022-12-18T00:15:46;100035.00;;;-6.59;47.56
21433;BME280;18592;49.708;10.900;2022-12-18T00:17:48;100035.09;;;-6.60;47.51
21433;BME280;18592;49.708;10.900;2022-12-18T00:19:50;100035.22;;;-6.62;47.38
21433;BME280;18592;49.708;10.900;2022-12-18T00:21:53;100028.19;;;-6.63;47.55
21433;BME280;18592;49.708;10.900;2022-12-18T00:23:56;100038.06;;;-6.65;47.53
21433;BME280;18592;49.708;10.900;2022-12-18T00:26:03;100041.78;;;-6.67;47.57
21433;BME280;18592;49.708;10.900;2022-12-18T00:28:05;100042.63;;;-6.67;47.50
21433;BME280;18592;49.708;10.900;2022-12-18T00:30:07;100035.75;;;-6.69;47.35
21433;BME280;18592;49.708;10.900;2022-12-18T00:32:10;100040.31;;;-6.71;47.27
21433;BME280;18592;49.708;10.900;2022-12-18T00:34:12;100045.69;;;-6.73;47.54
21433;BME280;18592;49.708;10.900;2022-12-18T00:36:19;100047.53;;;-6.73;47.74
21433;BME280;18592;49.708;10.900;2022-12-18T00:38:21;100046.75;;;-6.75;47.66
21433;BME280;18592;49.708;10.900;2022-12-18T00:40:26;100041.47;;;-6.75;47.47
21433;BME280;18592;49.708;10.900;2022-12-18T00:42:28;100031.81;;;-6.76;47.45
21433;BME280;18592;49.708;10.900;2022-12-18T00:44:48;100034.47;;;-6.76;47.53
21433;BME280;18592;49.708;10.900;2022-12-18T00:46:50;100037.34;;;-6.79;47.50
21433;BME280;18592;49.708;10.900;2022-12-18T00:48:53;100033.09;;;-6.82;47.36
21433;BME280;18592;49.708;10.900;2022-12-18T00:50:55;100029.72;;;-6.84;47.34
21433;BME280;18592;49.708;10.900;2022-12-18T00:52:57;100028.84;;;-6.84;47.32
21433;BME280;18592;49.708;10.900;2022-12-18T00:54:59;100031.72;;;-6.87;nan
21433;BME280;18592;49.708;10.900;2022-12-18T00:57:06;100029.25;;;-6.90;47.66
21433;BME280;18592;49.708;10.900;2022-12-18T00:59:07;100037.44;;;-6.93;47.27
21433;BME280;18592;49.708;10.900;2022-12-18T01:01:09;100041.16;;;-6.96;47.44
21433;BME280;18592;49.708;10.900;2022-12-18T01:03:14;100041.25;;;-6.97;47.47
21433;BME280;18592;49.708;10.900;2022-12-18T01:05:18;100044.94;;;-7.00;47.44
21433;BME280;18592;49.708;10.900;2022-12-18T01:07:19;100047.72;;;-7.01;47.43
21433;BME280;18592;49.708;10.900;2022-12-18T01:09:21;100053.00;;;-7.01;47.45
21433;BME280;18592;49.708;10.900;2022-12-18T01:11:26;100054.06;;;-7.04;47.52
21433;BME280;18592;49.708;10.900;2022-12-18T01:13:37;100056.59;;;-7.02;47.60
21433;BME280;18592;49.708;10.900;2022-12-18T01:15:39;100050.56;;;-7.04;47.59
21433;BME280;18592;49.708;10.900;2022-12-18T01:17:44;100064.66;;;-7.04;47.69
21433;BME280;18592;49.708;10.900;2022-12-18T01:19:46;100067.19;;;-7.02;47.74
21433;BME280;18592;49.708;10.900;2022-12-18T01:21:48;100066.25;;;-7.01;47.83
21433;BME280;18592;49.708;10.900;2022-12-18T01:23:54;100069.75;;;-7.01;47.93
21433;BME280;18592;49.708;10.900;2022-12-18T01:25:57;100061.69;;;-6.99;47.91
21433;BME280;18592;49.708;10.900;2022-12-18T01:27:59;100068.72;;;-6.98;47.80
21433;BME280;18592;49.708;10.900;2022-12-18T01:30:01;100071.34;;;-6.98;47.75
21433;BME280;18592;49.708;10.900;2022-12-18T01:32:02;100077.41;;;-6.96;48.17
21433;BME280;18592;49.708;10.900;2022-12-18T01:34:05;100081.72;;;-6.95;48.04
21433;BME280;18592;49.708;10.900;2022-12-18T01:36:14;100081.72;;;-6.95;48.06
21433;BME280;18592;49.708;10.900;2022-12-18T01:38:16;100077.28;;;-6.95;48.10
21433;BME280;18592;49.708;10.900;2022-12-18T01:40:19;100086.94;;;-6.94;48.20
21433;BME280;18592;49.708;10.900;2022-12-18T01:42:24;100088.94;;;-6.97;48.22
21433;BME280;18592;49.708;10.900;2022-12-18T01:47:06;100081.72;;;-6.95;48.32
21433;BME280;18592;49.708;10.900;2022-12-18T01:49:07;100084.38;;;-6.95;48.18
21433;BME280;18592;49.708;10.900;2022-12-18T01:51:13;100084.50;;;-6.97;48.23
21433;BME280;18592;49.708;10.900;2022-12-18T01:53:19;100095.09;;;-6.97;48.37
21433;BME280;18592;49.708;10.900;2022-12-18T01:55:28;100092.44;;;-6.97;48.39
21433;BME280;18592;49.708;10.900;2022-12-18T01:57:30;100093.09;;;-6.93;48.23
21433;BME280;18592;49.708;10.900;2022-12-18T01:59:35;100092.25;;;-6.94;48.25
21433;BME280;18592;49.708;10.900;2022-12-18T02:01:41;100091.25;;;-6.93;48.41
21433;BME280;18592;49.708;10.900;2022-12-18T02:03:43;100098.59;;;-6.96;48.33
21433;BME280;18592;49.708;10.900;2022-12-18T02:08:35;100102.19;;;-6.97;48.30
21433;BME280;18592;49.708;10.900;2022-12-18T02:13:18;100083.75;;;-6.99;48.01
21433;BME280;18592;49.708;10.900;2022-12-18T02:16:02;100077.59;;;-6.99;48.01
21433;BME280;18592;49.708;10.900;2022-12-18T02:18:12;100080.44;;;-7.02;48.06
21433;BME280;18592;49.708;10.900;2022-12-18T02:25:17;100072.06;;;-7.09;48.16
21433;BME280;18592;49.708;10.900;2022-12-18T02:27:22;100075.56;;;-7.08;48.32
21433;BME280;18592;49.708;10.900;2022-12-18T02:29:44;100080.03;;;-7.09;47.98
21433;BME280;18592;49.708;10.900;2022-12-18T02:31:59;100085.63;;;-7.14;48.29
21433;BME280;18592;49.708;10.900;2022-12-18T02:34:03;100086.69;;;-7.16;48.16
21433;BME280;18592;49.708;10.900;2022-12-18T02:36:13;100092.06;;;-7.18;47.88
21433;BME280;18592;49.708;10.900;2022-12-18T02:38:18;100085.91;;;-7.18;48.37
21433;BME280;18592;49.708;10.900;2022-12-18T02:40:24;100093.84;;;-7.18;48.12
21433;BME280;18592;49.708;10.900;2022-12-18T02:42:28;100094.81;;;-7.19;48.10
21433;BME280;18592;49.708;10.900;2022-12-18T02:44:30;100100.00;;;-7.18;48.13
21433;BME280;18592;49.708;10.900;2022-12-18T02:46:35;100092.38;;;-7.22;48.08
21433;BME280;18592;49.708;10.900;2022-12-18T02:48:45;100098.53;;;-7.22;48.13
21433;BME280;18592;49.708;10.900;2022-12-18T02:50:57;100099.38;;;-7.21;47.98
21433;BME280;18592;49.708;10.900;2022-12-18T02:57:55;100115.28;;;-7.21;47.81
21433;BME280;18592;49.708;10.900;2022-12-18T03:00:11;100109.13;;;-7.22;48.00
21433;BME280;18592;49.708;10.900;2022-12-18T03:02:26;100107.34;;;-7.21;48.08
21433;BME280;18592;49.708;10.900;2022-12-18T03:04:36;100102.97;;;-7.22;47.82
21433;BME280;18592;49.708;10.900;2022-12-18T03:06:46;100097.78;;;-7.24;47.73
21433;BME280;18592;49.708;10.900;2022-12-18T03:08:57;100083.78;;;-7.26;47.79
21433;BME280;18592;49.708;10.900;2022-12-18T03:11:04;100089.28;;;-7.29;47.97
21433;BME280;18592;49.708;10.900;2022-12-18T03:13:10;100087.47;;;-7.28;47.88
21433;BME280;18592;49.708;10.900;2022-12-18T03:15:20;100094.69;;;-7.30;47.90
21433;BME280;18592;49.708;10.900;2022-12-18T03:17:33;100093.63;;;-7.28;47.83
21433;BME280;18592;49.708;10.900;2022-12-18T03:19:35;100098.19;;;-7.30;48.04
21433;BME280;18592;49.708;10.900;2022-12-18T03:21:51;100100.09;;;-7.32;47.93
21433;BME280;18592;49.708;10.900;2022-12-18T03:23:55;100112.47;;;-7.32;48.05
21433;BME280;18592;49.708;10.900;2022-12-18T03:26:06;100120.53;;;-7.34;47.75
21433;BME280;18592;49.708;10.900;2022-12-18T03:28:17;100117.88;;;-7.34;47.88
21433;BME280;18592;49.708;10.900;2022-12-18T03:30:21;100113.53;;;-7.35;47.89
21433;BME280;18592;49.708;10.900;2022-12-18T03:32:38;100108.03;;;-7.32;48.00
21433;BME280;18592;49.708;10.900;2022-12-18T03:34:44;100117.66;;;-7.31;47.97
21433;BME280;18592;49.708;10.900;2022-12-18T03:36:49;100118.63;;;-7.32;47.91
21433;BME280;18592;49.708;10.900;2022-12-18T03:38:52;100125.81;;;-7.34;48.03
21433;BME280;18592;49.708;10.900;2022-12-18T03:46:14;100129.34;;;-7.21;48.38
21433;BME280;18592;49.708;10.900;2022-12-18T03:49:31;100128.09;;;-7.15;48.25
21433;BME280;18592;49.708;10.900;2022-12-18T03:51:32;100130.44;;;-7.11;48.35
21433;BME280;18592;49.708;10.900;2022-12-18T03:53:59;100133.94;;;-7.10;48.40
21433;BME280;18592;49.708;10.900;2022-12-18T03:56:07;100131.84;;;-7.05;48.56
21433;BME280;18592;49.708;10.900;2022-12-18T03:58:18;100128.44;;;-7.07;48.69
21433;BME280;18592;49.708;10.900;2022-12-18T04:00:29;100121.25;;;-7.05;48.74
21433;BME280;18592;49.708;10.900;2022-12-18T04:02:46;100131.94;;;-7.06;48.73
21433;BME280;18592;49.708;10.900;2022-12-18T04:05:04;100136.28;;;-7.05;48.80
21433;BME280;18592;49.708;10.900;2022-12-18T04:07:11;100135.88;;;-6.99;48.74
21433;BME280;18592;49.708;10.900;2022-12-18T04:09:18;100136.63;;;-6.97;48.93
21433;BME280;18592;49.708;10.900;2022-12-18T04:11:23;100138.34;;;-6.96;48.81
21433;BME280;18592;49.708;10.900;2022-12-18T04:13:33;100137.16;;;-6.92;48.97
21433;BME280;18592;49.708;10.900;2022-12-18T04:15:37;100144.91;;;-6.89;48.88
21433;BME280;18592;49.708;10.900;2022-12-18T04:17:48;100130.72;;;-6.88;48.88
21433;BME280;18592;49.708;10.900;2022-12-18T04:19:54;100135.78;;;-6.85;48.76
21433;BME280;18592;49.708;10.900;2022-12-18T04:21:58;100138.16;;;-6.81;49.18
21433;BME280;18592;49.708;10.900;2022-12-18T04:24:01;100140.91;;;-6.82;48.83
21433;BME280;18592;49.708;10.900;2022-12-18T04:26:03;100154.16;;;-6.82;48.82
21433;BME280;18592;49.708;10.900;2022-12-18T04:28:17;100157.53;;;-6.80;48.59
21433;BME280;18592;49.708;10.900;2022-12-18T04:30:20;100150.56;;;-6.81;48.87
21433;BME280;18592;49.708;10.900;2022-12-18T04:32:21;100151.41;;;-6.81;48.82
21433;BME280;18592;49.708;10.900;2022-12-18T04:34:28;100143.56;;;-6.82;48.60
21433;BME280;18592;49.708;10.900;2022-12-18T04:36:31;100137.50;;;-6.84;48.93
21433;BME280;18592;49.708;10.900;2022-12-18T04:38:33;100144.59;;;-6.85;48.72
21433;BME280;18592;49.708;10.900;2022-12-18T04:40:41;100142.06;;;-6.86;48.57
21433;BME280;18592;49.708;10.900;2022-12-18T04:42:51;100146.31;;;-6.84;48.77
21433;BME280;18592;49.708;10.900;2022-12-18T04:44:52;100144.59;;;-6.85;48.82
21433;BME280;18592;49.708;10.900;2022-12-18T04:46:57;100123.31;;;-6.83;48.95
21433;BME280;18592;49.708;10.900;2022-12-18T04:48:59;100124.25;;;-6.84;48.95
21433;BME280;18592;49.708;10.900;2022-12-18T04:51:00;100121.28;;;-6.80;48.86
21433;BME280;18592;49.708;10.900;2022-12-18T04:53:05;100118.56;;;-6.78;48.46
21433;BME280;18592;49.708;10.900;2022-12-18T04:55:07;100128.09;;;-6.76;48.76
21433;BME280;18592;49.708;10.900;2022-12-18T04:57:08;100131.56;;;-6.75;48.88
21433;BME280;18592;49.708;10.900;2022-12-18T04:59:10;100137.66;;;-6.73;48.87
21433;BME280;18592;49.708;10.900;2022-12-18T05:01:13;100141.97;;;-6.72;49.11
21433;BME280;18592;49.708;10.900;2022-12-18T05:03:15;100149.94;;;-6.72;49.16
21433;BME280;18592;49.708;10.900;2022-12-18T05:05:17;100141.97;;;-6.72;49.03
21433;BME280;18592;49.708;10.900;2022-12-18T05:07:19;100131.38;;;-6.72;48.92
21433;BME280;18592;49.708;10.900;2022-12-18T05:09:20;100131.91;;;-6.67;48.89
21433;BME280;18592;49.708;10.900;2022-12-18T05:11:22;100132.88;;;-6.68;48.96
21433;BME280;18592;49.708;10.900;2022-12-18T05:13:24;100133.81;;;-6.69;49.06
21433;BME280;18592;49.708;10.900;2022-12-18T05:15:29;100138.81;;;-6.65;48.98
21433;BME280;18592;49.708;10.900;2022-12-18T05:17:31;100141.38;;;-6.63;49.03
21433;BME280;18592;49.708;10.900;2022-12-18T05:19:33;100153.66;;;-6.62;48.91
21433;BME280;18592;49.708;10.900;2022-12-18T05:21:35;100158.03;;;-6.61;48.81
21433;BME280;18592;49.708;10.900;2022-12-18T05:23:37;100155.38;;;-6.61;48.77
21433;BME280;18592;49.708;10.900;2022-12-18T05:25:39;100156.22;;;-6.61;48.50
21433;BME280;18592;49.708;10.900;2022-12-18T05:27:42;100168.63;;;-6.61;48.80
21433;BME280;18592;49.708;10.900;2022-12-18T05:29:43;100159.06;;;-6.64;48.83
21433;BME280;18592;49.708;10.900;2022-12-18T05:31:54;100160.88;;;-6.64;48.85
21433;BME280;18592;49.708;10.900;2022-12-18T05:33:58;100153.03;;;-6.66;49.03
21433;BME280;18592;49.708;10.900;2022-12-18T05:36:01;100158.22;;;-6.64;49.21
21433;BME280;18592;49.708;10.900;2022-12-18T05:38:06;100157.38;;;-6.65;48.93
21433;BME280;18592;49.708;10.900;2022-12-18T05:40:11;100158.22;;;-6.64;49.12
21433;BME280;18592;49.708;10.900;2022-12-18T05:42:13;100156.44;;;-6.64;49.03
21433;BME280;18592;49.708;10.900;2022-12-18T05:44:14;100157.16;;;-6.62;49.34
21433;BME280;18592;49.708;10.900;2022-12-18T05:46:18;100164.19;;;-6.61;49.12
21433;BME280;18592;49.708;10.900;2022-12-18T05:48:22;100163.00;;;-6.57;49.12
21433;BME280;18592;49.708;10.900;2022-12-18T05:50:24;100161.22;;;-6.56;49.21
21433;BME280;18592;49.708;10.900;2022-12-18T05:52:26;100160.91;;;-6.52;49.13
21433;BME280;18592;49.708;10.900;2022-12-18T05:54:28;100159.94;;;-6.51;49.29
21433;BME280;18592;49.708;10.900;2022-12-18T05:56:29;100156.31;;;-6.50;49.27
21433;BME280;18592;49.708;10.900;2022-12-18T05:58:32;100151.69;;;-6.46;49.50
21433;BME280;18592;49.708;10.900;2022-12-18T06:00:38;100152.94;;;-6.39;49.71
21433;BME280;18592;49.708;10.900;2022-12-18T06:02:41;100149.22;;;-6.36;49.96
21433;BME280;18592;49.708;10.900;2022-12-18T06:04:46;100156.88;;;-6.32;50.15
21433;BME280;18592;49.708;10.900;2022-12-18T06:06:51;100160.06;;;-6.27;50.59
21433;BME280;18592;49.708;10.900;2022-12-18T06:08:54;100171.44;;;-6.25;50.46
21433;BME280;18592;49.708;10.900;2022-12-18T06:10:56;100171.00;;;-6.19;49.87
21433;BME280;18592;49.708;10.900;2022-12-18T06:12:58;100173.22;;;-6.13;49.86
21433;BME280;18592;49.708;10.900;2022-12-18T06:14:59;100172.06;;;-6.09;50.44
21433;BME280;18592;49.708;10.900;2022-12-18T06:17:01;100177.03;;;-6.04;51.21
21433;BME280;18592;49.708;10.900;2022-12-18T06:19:05;100173.56;;;-6.05;51.21
21433;BME280;18592;49.708;10.900;2022-12-18T06:21:07;100163.47;;;-6.00;51.64
21433;BME280;18592;49.708;10.900;2022-12-18T06:23:08;100160.47;;;-5.95;51.85
21433;BME280;18592;49.708;10.900;2022-12-18T06:25:15;100158.22;;;-5.89;51.42
21433;BME280;18592;49.708;10.900;2022-12-18T06:27:17;100154.16;;;-5.82;51.30
21433;BME280;18592;49.708;10.900;2022-12-18T06:29:22;100149.28;;;-5.75;52.07
21433;BME280;18592;49.708;10.900;2022-12-18T06:31:24;100146.16;;;-5.69;52.09
21433;BME280;18592;49.708;10.900;2022-12-18T06:33:27;100159.88;;;-5.62;51.83
21433;BME280;18592;49.708;10.900;2022-12-18T06:35:29;100162.81;;;-5.54;51.25
21433;BME280;18592;49.708;10.900;2022-12-18T06:37:31;100168.41;;;-5.46;51.54
21433;BME280;18592;49.708;10.900;2022-12-18T06:39:33;100179.56;;;-5.41;51.01
21433;BME280;18592;49.708;10.900;2022-12-18T06:41:37;100162.97;;;-5.32;51.37
21433;BME280;18592;49.708;10.900;2022-12-18T06:43:44;100160.81;;;-5.27;51.82
21433;BME280;18592;49.708;10.900;2022-12-18T06:45:46;100174.84;;;-5.25;52.24
21433;BME280;18592;49.708;10.900;2022-12-18T06:47:54;100168.88;;;-5.16;51.22
21433;BME280;18592;49.708;10.900;2022-12-18T06:49:55;100181.59;;;-5.08;51.52
21433;BME280;18592;49.708;10.900;2022-12-18T06:51:57;100183.69;;;-5.01;51.38
21433;BME280;18592;49.708;10.900;2022-12-18T06:53:58;100189.25;;;-4.93;51.50
21433;BME280;18592;49.708;10.900;2022-12-18T06:56:05;100193.41;;;-4.89;51.40
21433;BME280;18592;49.708;10.900;2022-12-18T06:58:11;100189.53;;;-4.85;52.28
21433;BME280;18592;49.708;10.900;2022-12-18T07:00:13;100193.91;;;-4.84;51.82
21433;BME280;18592;49.708;10.900;2022-12-18T07:02:15;100188.03;;;-4.76;52.20
21433;BME280;18592;49.708;10.900;2022-12-18T07:04:17;100183.31;;;-4.73;52.12
21433;BME280;18592;49.708;10.900;2022-12-18T07:06:20;100177.78;;;-4.70;52.34
21433;BME280;18592;49.708;10.900;2022-12-18T07:08:22;100178.19;;;-4.63;52.50
21433;BME280;18592;49.708;10.900;2022-12-18T07:10:25;100168.03;;;-4.58;51.81
21433;BME280;18592;49.708;10.900;2022-12-18T07:12:27;100166.81;;;-4.54;52.29
21433;BME280;18592;49.708;10.900;2022-12-18T07:14:29;100171.69;;;-4.48;52.39
21433;BME280;18592;49.708;10.900;2022-12-18T07:16:31;100167.69;;;-4.42;52.37
21433;BME280;18592;49.708;10.900;2022-12-18T07:18:35;100170.13;;;-4.39;52.58
21433;BME280;18592;49.708;10.900;2022-12-18T07:20:37;100173.19;;;-4.33;52.17
21433;BME280;18592;49.708;10.900;2022-12-18T07:22:39;100173.78;;;-4.29;51.71
21433;BME280;18592;49.708;10.900;2022-12-18T07:24:43;100170.66;;;-4.23;51.86
21433;BME280;18592;49.708;10.900;2022-12-18T07:26:48;100178.41;;;-4.20;51.45
21433;BME280;18592;49.708;10.900;2022-12-18T07:28:55;100174.53;;;-4.16;51.36
21433;BME280;18592;49.708;10.900;2022-12-18T07:31:03;100182.38;;;-4.15;51.70
21433;BME280;18592;49.708;10.900;2022-12-18T07:33:05;100183.00;;;-4.11;51.46
21433;BME280;18592;49.708;10.900;2022-12-18T07:35:07;100184.47;;;-4.07;51.50
21433;BME280;18592;49.708;10.900;2022-12-18T07:37:08;100180.72;;;-4.05;50.97
21433;BME280;18592;49.708;10.900;2022-12-18T07:39:13;100183.28;;;-4.03;51.17
21433;BME280;18592;49.708;10.900;2022-12-18T07:41:15;100188.59;;;-4.03;51.01
21433;BME280;18592;49.708;10.900;2022-12-18T07:43:17;100192.94;;;-4.02;51.32
21433;BME280;18592;49.708;10.900;2022-12-18T07:45:21;100200.09;;;-4.03;51.51
21433;BME280;18592;49.708;10.900;2022-12-18T07:47:23;100207.97;;;-4.01;51.02
21433;BME280;18592;49.708;10.900;2022-12-18T07:49:25;100201.78;;;-4.02;51.29
21433;BME280;18592;49.708;10.900;2022-12-18T07:51:27;100212.34;;;-4.00;50.95
21433;BME280;18592;49.708;10.900;2022-12-18T07:53:28;100209.66;;;-4.00;51.63
21433;BME280;18592;49.708;10.900;2022-12-18T07:55:31;100212.19;;;-3.99;50.85
21433;BME280;18592;49.708;10.900;2022-12-18T07:57:53;100226.38;;;-3.98;51.27
21433;BME280;18592;49.708;10.900;2022-12-18T08:00:02;100225.38;;;-3.97;51.16
21433;BME280;18592;49.708;10.900;2022-12-18T08:02:12;100215.50;;;-3.95;50.87
21433;BME280;18592;49.708;10.900;2022-12-18T08:04:16;100205.94;;;-3.98;51.08
21433;BME280;18592;49.708;10.900;2022-12-18T08:06:21;100214.72;;;-3.97;51.09
21433;BME280;18592;49.708;10.900;2022-12-18T08:08:25;100210.25;;;-3.97;50.82
21433;BME280;18592;49.708;10.900;2022-12-18T08:10:27;100214.72;;;-3.97;51.01
21433;BME280;18592;49.708;10.900;2022-12-18T08:12:31;100216.56;;;-3.98;51.18
21433;BME280;18592;49.708;10.900;2022-12-18T08:14:32;100214.50;;;-3.94;51.18
21433;BME280;18592;49.708;10.900;2022-12-18T08:16:36;100217.06;;;-3.93;50.86
21433;BME280;18592;49.708;10.900;2022-12-18T08:18:38;100209.91;;;-3.92;50.98
21433;BME280;18592;49.708;10.900;2022-12-18T08:20:42;100215.97;;;-3.90;50.87
21433;BME280;18592;49.708;10.900;2022-12-18T08:22:44;100219.59;;;-3.91;50.99
21433;BME280;18592;49.708;10.900;2022-12-18T08:24:48;100217.56;;;-3.88;51.06
21433;BME280;18592;49.708;10.900;2022-12-18T08:26:50;100210.41;;;-3.87;50.97
21433;BME280;18592;49.708;10.900;2022-12-18T08:29:12;100217.44;;;-3.86;51.33
21433;BME280;18592;49.708;10.900;2022-12-18T08:31:22;100214.53;;;-3.83;51.20
21433;BME280;18592;49.708;10.900;2022-12-18T08:33:25;100222.28;;;-3.80;50.93
21433;BME280;18592;49.708;10.900;2022-12-18T08:35:27;100221.44;;;-3.80;51.15
21433;BME280;18592;49.708;10.900;2022-12-18T08:37:36;100216.97;;;-3.80;50.89
21433;BME280;18592;49.708;10.900;2022-12-18T08:39:38;100224.72;;;-3.77;51.20
21433;BME280;18592;49.708;10.900;2022-12-18T08:41:40;100222.06;;;-3.77;51.19
21433;BME280;18592;49.708;10.900;2022-12-18T08:43:42;100221.78;;;-3.74;51.40
21433;BME280;18592;49.708;10.900;2022-12-18T08:46:02;100216.38;;;-3.72;51.11
21433;BME280;18592;49.708;10.900;2022-12-18T08:48:04;100218.91;;;-3.71;51.13
21433;BME280;18592;49.708;10.900;2022-12-18T08:50:06;100207.28;;;-3.70;51.31
21433;BME280;18592;49.708;10.900;2022-12-18T08:52:08;100214.28;;;-3.69;51.39
21433;BME280;18592;49.708;10.900;2022-12-18T08:54:13;100214.28;;;-3.69;51.75
21433;BME280;18592;49.708;10.900;2022-12-18T08:56:15;100212.38;;;-3.67;51.60
21433;BME280;18592;49.708;10.900;2022-12-18T08:58:19;100214.91;;;-3.65;51.45
21433;BME280;18592;49.708;10.900;2022-12-18T09:00:21;100217.44;;;-3.64;51.28
21433;BME280;18592;49.708;10.900;2022-12-18T09:02:23;100214.91;;;-3.65;51.62
21433;BME280;18592;49.708;10.900;2022-12-18T09:04:24;100208.50;;;-3.63;51.79
21433;BME280;18592;49.708;10.900;2022-12-18T09:06:26;100199.53;;;-3.62;51.64
21433;BME280;18592;49.708;10.900;2022-12-18T09:08:28;100202.06;;;-3.60;51.71
21433;BME280;18592;49.708;10.900;2022-12-18T09:10:30;100198.31;;;-3.58;51.41
21433;BME280;18592;49.708;10.900;2022-12-18T09:12:34;100207.03;;;-3.56;51.88
21433;BME280;18592;49.708;10.900;2022-12-18T09:14:36;100206.78;;;-3.53;51.45
21433;BME280;18592;49.708;10.900;2022-12-18T09:16:41;100206.66;;;-3.51;51.63
21433;BME280;18592;49.708;10.900;2022-12-18T09:18:43;100216.00;;;-3.46;51.36
21433;BME280;18592;49.708;10.900;2022-12-18T09:20:49;100208.97;;;-3.47;51.56
21433;BME280;18592;49.708;10.900;2022-12-18T09:22:55;100209.72;;;-3.45;51.73
21433;BME280;18592;49.708;10.900;2022-12-18T09:24:57;100199.53;;;-3.40;51.83
21433;BME280;18592;49.708;10.900;2022-12-18T09:26:59;100195.63;;;-3.36;51.84
21433;BME280;18592;49.708;10.900;2022-12-18T09:29:02;100191.75;;;-3.32;51.89
21433;BME280;18592;49.708;10.900;2022-12-18T09:31:06;100191.38;;;-3.27;51.91
21433;BME280;18592;49.708;10.900;2022-12-18T09:33:09;100189.06;;;-3.21;51.84
21433;BME280;18592;49.708;10.900;2022-12-18T09:35:11;100179.88;;;-3.16;52.10
21433;BME280;18592;49.708;10.900;2022-12-18T09:37:13;100174.25;;;-3.13;51.64
21433;BME280;18592;49.708;10.900;2022-12-18T09:39:14;100177.63;;;-3.00;52.36
21433;BME280;18592;49.708;10.900;2022-12-18T09:41:46;100177.13;;;-2.94;52.09
21433;BME280;18592;49.708;10.900;2022-12-18T09:43:52;100169.13;;;-2.94;52.53
21433;BME280;18592;49.708;10.900;2022-12-18T09:45:59;100176.38;;;-2.85;52.45
21433;BME280;18592;49.708;10.900;2022-12-18T09:48:03;100177.06;;;-2.83;52.57
21433;BME280;18592;49.708;10.900;2022-12-18T09:52:35;100175.81;;;-2.68;52.73
21433;BME280;18592;49.708;10.900;2022-12-18T09:57:05;100178.34;;;-2.55;53.09
21433;BME280;18592;49.708;10.900;2022-12-18T09:59:18;100174.28;;;-2.50;52.70
21433;BME280;18592;49.708;10.900;2022-12-18T10:01:25;100181.66;;;-2.42;52.80
21433;BME280;18592;49.708;10.900;2022-12-18T10:03:39;100175.94;;;-2.38;53.90
21433;BME280;18592;49.708;10.900;2022-12-18T10:05:51;100173.72;;;-2.33;54.08
21433;BME280;18592;49.708;10.900;2022-12-18T10:08:17;100170.97;;;-2.22;53.83
21433;BME280;18592;49.708;10.900;2022-12-18T10:10:26;100166.34;;;-2.20;53.90
21433;BME280;18592;49.708;10.900;2022-12-18T10:13:09;100163.22;;;-2.04;54.05
21433;BME280;18592;49.708;10.900;2022-12-18T10:15:20;100153.03;;;-1.89;53.77
21433;BME280;18592;49.708;10.900;2022-12-18T10:20:02;100131.53;;;-1.88;53.51
21433;BME280;18592;49.708;10.900;2022-12-18T10:22:24;100136.63;;;-1.85;54.65
21433;BME280;18592;49.708;10.900;2022-12-18T10:24:42;100137.63;;;-1.76;54.45
21433;BME280;18592;49.708;10.900;2022-12-18T10:26:46;100132.91;;;-1.63;54.57
21433;BME280;18592;49.708;10.900;2022-12-18T10:28:49;100130.94;;;-1.61;54.96
21433;BME280;18592;49.708;10.900;2022-12-18T10:30:52;100125.94;;;-1.45;54.40
21433;BME280;18592;49.708;10.900;2022-12-18T10:33:01;100134.94;;;-1.37;54.70
21433;BME280;18592;49.708;10.900;2022-12-18T10:35:03;100139.16;;;-1.34;55.02
21433;BME280;18592;49.708;10.900;2022-12-18T10:37:13;100132.75;;;-1.22;54.54
21433;BME280;18592;49.708;10.900;2022-12-18T10:39:24;100137.13;;;-1.11;54.49
21433;BME280;18592;49.708;10.900;2022-12-18T10:41:29;100144.03;;;-1.09;54.81
21433;BME280;18592;49.708;10.900;2022-12-18T10:45:35;100145.19;;;-0.83;53.79
21433;BME280;18592;49.708;10.900;2022-12-18T10:47:42;100143.63;;;-0.76;54.90
21433;BME280;18592;49.708;10.900;2022-12-18T10:49:50;100145.22;;;-0.63;54.43
21433;BME280;18592;49.708;10.900;2022-12-18T10:52:27;100142.63;;;-0.55;54.49
21433;BME280;18592;49.708;10.900;2022-12-18T10:54:30;100145.19;;;-0.54;54.56
21433;BME280;18592;49.708;10.900;2022-12-18T10:56:36;100143.78;;;-0.48;54.24
21433;BME280;18592;49.708;10.900;2022-12-18T10:58:39;100149.25;;;-0.40;53.86
21433;BME280;18592;49.708;10.900;2022-12-18T11:01:14;100156.44;;;-0.31;53.83
21433;BME280;18592;49.708;10.900;2022-12-18T11:03:36;100152.50;;;-0.27;53.99
21433;BME280;18592;49.708;10.900;2022-12-18T11:05:38;100140.06;;;-0.19;53.66
21433;BME280;18592;49.708;10.900;2022-12-18T11:07:50;100133.16;;;-0.12;54.27
21433;BME280;18592;49.708;10.900;2022-12-18T11:10:01;100119.19;;;-0.06;54.64
21433;BME280;18592;49.708;10.900;2022-12-18T11:12:17;100126.50;;;0.02;54.51
21433;BME280;18592;49.708;10.900;2022-12-18T11:14:43;100122.53;;;0.06;53.90
21433;BME280;18592;49.708;10.900;2022-12-18T11:16:50;100122.81;;;0.13;54.01
21433;BME280;18592;49.708;10.900;2022-12-18T11:19:23;100117.94;;;0.26;53.82
21433;BME280;18592;49.708;10.900;2022-12-18T11:21:28;100110.91;;;0.25;53.72
21433;BME280;18592;49.708;10.900;2022-12-18T11:23:30;100109.31;;;0.32;53.50